sensor_id;sensor_type;location;lat;lon;timestamp;P1;durP1;ratioP1;P2;durP2;ratioP2
26337;SDS011;14050;50.950;4.460;2023-07-13T00:04:51;9.93;;;2.15;;
26337;SDS011;14050;50.950;4.460;2023-07-13T00:09:52;13.38;;;2.15;;
26337;SDS011;14050;50.950;4.460;2023-07-13T00:14:52;8.90;;;2.30;;
26337;SDS011;14050;50.950;4.460;2023-07-13T00:19:53;14.73;;;3.05;;
26337;SDS011;14050;50.950;4.460;2023-07-13T00:24:55;11.30;;;2.17;;
26337;SDS011;14050;50.950;4.460;2023-07-13T00:29:56;10.10;;;2.28;;
26337;SDS011;14050;50.950;4.460;2023-07-13T00:34:56;10.30;;;2.10;;
26337;SDS011;14050;50.950;4.460;2023-07-13T00:39:58;11.93;;;2.10;;
26337;SDS011;14050;50.950;4.460;2023-07-13T00:45:07;10.68;;;2.47;;
26337;SDS011;14050;50.950;4.460;2023-07-13T00:50:10;13.63;;;2.45;;
26337;SDS011;14050;50.950;4.460;2023-07-13T00:55:11;9.55;;;2.47;;
26337;SDS011;14050;50.950;4.460;2023-07-13T01:00:12;15.32;;;2.38;;
26337;SDS011;14050;50.950;4.460;2023-07-13T01:05:14;10.15;;;1.95;;
26337;SDS011;14050;50.950;4.460;2023-07-13T01:10:14;11.25;;;2.28;;
26337;SDS011;14050;50.950;4.460;2023-07-13T01:20:33;10.73;;;2.15;;
26337;SDS011;14050;50.950;4.460;2023-07-13T01:25:36;16.02;;;2.88;;
26337;SDS011;14050;50.950;4.460;2023-07-13T01:30:37;12.52;;;2.67;;
26337;SDS011;14050;50.950;4.460;2023-07-13T01:35:40;12.38;;;2.25;;
26337;SDS011;14050;50.950;4.460;2023-07-13T01:40:41;9.95;;;2.35;;
26337;SDS011;14050;50.950;4.460;2023-07-13T01:45:41;11.77;;;2.92;;
26337;SDS011;14050;50.950;4.460;2023-07-13T01:50:43;8.75;;;2.08;;
26337;SDS011;14050;50.950;4.460;2023-07-13T01:55:44;18.13;;;3.00;;
26337;SDS011;14050;50.950;4.460;2023-07-13T02:00:47;11.10;;;2.22;;
26337;SDS011;14050;50.950;4.460;2023-07-13T02:05:48;12.98;;;2.55;;
26337;SDS011;14050;50.950;4.460;2023-07-13T02:10:48;7.82;;;2.42;;
26337;SDS011;14050;50.950;4.460;2023-07-13T02:15:51;17.98;;;2.80;;
26337;SDS011;14050;50.950;4.460;2023-07-13T02:20:53;11.57;;;2.80;;
26337;SDS011;14050;50.950;4.460;2023-07-13T02:25:57;9.70;;;2.35;;
26337;SDS011;14050;50.950;4.460;2023-07-13T02:31:03;17.27;;;2.70;;
26337;SDS011;14050;50.950;4.460;2023-07-13T02:36:04;13.95;;;2.75;;
26337;SDS011;14050;50.950;4.460;2023-07-13T02:41:06;14.73;;;2.92;;
26337;SDS011;14050;50.950;4.460;2023-07-13T02:46:06;19.33;;;3.00;;
26337;SDS011;14050;50.950;4.460;2023-07-13T02:51:07;14.63;;;2.97;;
26337;SDS011;14050;50.950;4.460;2023-07-13T02:56:08;11.68;;;2.55;;
26337;SDS011;14050;50.950;4.460;2023-07-13T03:01:09;14.75;;;3.03;;
26337;SDS011;14050;50.950;4.460;2023-07-13T03:06:09;11.93;;;2.65;;
26337;SDS011;14050;50.950;4.460;2023-07-13T03:11:11;13.73;;;2.95;;
26337;SDS011;14050;50.950;4.460;2023-07-13T03:16:12;15.27;;;3.10;;
26337;SDS011;14050;50.950;4.460;2023-07-13T03:21:13;13.52;;;3.00;;
26337;SDS011;14050;50.950;4.460;2023-07-13T03:26:14;15.23;;;3.50;;
26337;SDS011;14050;50.950;4.460;2023-07-13T03:31:16;13.63;;;3.38;;
26337;SDS011;14050;50.950;4.460;2023-07-13T03:36:22;15.48;;;3.45;;
26337;SDS011;14050;50.950;4.460;2023-07-13T03:41:23;19.70;;;3.58;;
26337;SDS011;14050;50.950;4.460;2023-07-13T03:46:23;14.65;;;3.63;;
26337;SDS011;14050;50.950;4.460;2023-07-13T03:51:23;20.73;;;3.75;;
26337;SDS011;14050;50.950;4.460;2023-07-13T03:56:24;16.92;;;3.67;;
26337;SDS011;14050;50.950;4.460;2023-07-13T04:01:24;14.23;;;3.47;;
26337;SDS011;14050;50.950;4.460;2023-07-13T04:06:28;13.65;;;3.60;;
26337;SDS011;14050;50.950;4.460;2023-07-13T04:11:29;10.13;;;2.63;;
26337;SDS011;14050;50.950;4.460;2023-07-13T04:16:31;19.17;;;4.47;;
26337;SDS011;14050;50.950;4.460;2023-07-13T04:21:31;15.97;;;2.80;;
26337;SDS011;14050;50.950;4.460;2023-07-13T04:26:31;16.30;;;3.60;;
26337;SDS011;14050;50.950;4.460;2023-07-13T04:31:32;16.27;;;3.47;;
26337;SDS011;14050;50.950;4.460;2023-07-13T04:36:32;20.88;;;3.78;;
26337;SDS011;14050;50.950;4.460;2023-07-13T04:41:33;22.40;;;4.30;;
26337;SDS011;14050;50.950;4.460;2023-07-13T04:46:33;18.50;;;4.07;;
26337;SDS011;14050;50.950;4.460;2023-07-13T04:51:33;17.65;;;3.30;;
26337;SDS011;14050;50.950;4.460;2023-07-13T04:56:33;13.05;;;3.95;;
26337;SDS011;14050;50.950;4.460;2023-07-13T05:01:34;16.77;;;4.20;;
26337;SDS011;14050;50.950;4.460;2023-07-13T05:06:35;20.65;;;3.78;;
26337;SDS011;14050;50.950;4.460;2023-07-13T05:11:35;14.52;;;3.20;;
26337;SDS011;14050;50.950;4.460;2023-07-13T05:16:36;25.83;;;4.45;;
26337;SDS011;14050;50.950;4.460;2023-07-13T05:21:36;20.35;;;4.32;;
26337;SDS011;14050;50.950;4.460;2023-07-13T05:26:38;19.88;;;4.25;;
26337;SDS011;14050;50.950;4.460;2023-07-13T05:31:38;22.15;;;4.43;;
26337;SDS011;14050;50.950;4.460;2023-07-13T05:36:38;18.65;;;3.83;;
26337;SDS011;14050;50.950;4.460;2023-07-13T05:41:38;20.77;;;3.78;;
26337;SDS011;14050;50.950;4.460;2023-07-13T05:46:39;19.90;;;4.05;;
26337;SDS011;14050;50.950;4.460;2023-07-13T05:51:39;24.97;;;4.53;;
26337;SDS011;14050;50.950;4.460;2023-07-13T05:56:39;15.43;;;3.92;;
26337;SDS011;14050;50.950;4.460;2023-07-13T06:01:40;20.80;;;4.43;;
26337;SDS011;14050;50.950;4.460;2023-07-13T06:06:41;18.60;;;4.07;;
26337;SDS011;14050;50.950;4.460;2023-07-13T06:11:41;19.10;;;3.92;;
26337;SDS011;14050;50.950;4.460;2023-07-13T06:16:41;20.95;;;4.20;;
26337;SDS011;14050;50.950;4.460;2023-07-13T06:21:41;23.27;;;3.90;;
26337;SDS011;14050;50.950;4.460;2023-07-13T06:26:41;25.15;;;4.30;;
26337;SDS011;14050;50.950;4.460;2023-07-13T06:31:42;18.25;;;3.65;;
26337;SDS011;14050;50.950;4.460;2023-07-13T06:36:43;18.58;;;3.85;;
26337;SDS011;14050;50.950;4.460;2023-07-13T06:41:43;18.25;;;3.97;;
26337;SDS011;14050;50.950;4.460;2023-07-13T06:46:43;17.10;;;4.22;;
26337;SDS011;14050;50.950;4.460;2023-07-13T06:51:44;19.58;;;3.80;;
26337;SDS011;14050;50.950;4.460;2023-07-13T06:56:44;16.05;;;3.63;;
26337;SDS011;14050;50.950;4.460;2023-07-13T07:01:44;18.13;;;4.55;;
26337;SDS011;14050;50.950;4.460;2023-07-13T07:06:44;24.57;;;4.20;;
26337;SDS011;14050;50.950;4.460;2023-07-13T07:11:45;18.77;;;4.07;;
26337;SDS011;14050;50.950;4.460;2023-07-13T07:16:46;22.42;;;4.22;;
26337;SDS011;14050;50.950;4.460;2023-07-13T07:21:46;21.02;;;3.88;;
26337;SDS011;14050;50.950;4.460;2023-07-13T07:26:46;26.45;;;4.10;;
26337;SDS011;14050;50.950;4.460;2023-07-13T07:31:46;19.45;;;4.22;;
26337;SDS011;14050;50.950;4.460;2023-07-13T07:36:46;18.42;;;3.90;;
26337;SDS011;14050;50.950;4.460;2023-07-13T07:41:47;21.20;;;3.80;;
26337;SDS011;14050;50.950;4.460;2023-07-13T07:46:47;18.13;;;3.80;;
26337;SDS011;14050;50.950;4.460;2023-07-13T07:51:47;17.98;;;3.53;;
26337;SDS011;14050;50.950;4.460;2023-07-13T07:56:47;16.42;;;3.67;;
26337;SDS011;14050;50.950;4.460;2023-07-13T08:01:48;17.63;;;3.80;;
26337;SDS011;14050;50.950;4.460;2023-07-13T08:06:50;24.00;;;4.75;;
26337;SDS011;14050;50.950;4.460;2023-07-13T08:11:50;16.75;;;3.63;;
26337;SDS011;14050;50.950;4.460;2023-07-13T08:16:52;17.02;;;3.08;;
26337;SDS011;14050;50.950;4.460;2023-07-13T08:21:53;18.73;;;4.18;;
26337;SDS011;14050;50.950;4.460;2023-07-13T08:26:53;11.82;;;3.47;;
26337;SDS011;14050;50.950;4.460;2023-07-13T08:31:54;17.23;;;3.72;;
26337;SDS011;14050;50.950;4.460;2023-07-13T08:36:54;19.77;;;3.73;;
26337;SDS011;14050;50.950;4.460;2023-07-13T08:41:56;13.75;;;3.22;;
26337;SDS011;14050;50.950;4.460;2023-07-13T08:46:58;14.73;;;3.28;;
26337;SDS011;14050;50.950;4.460;2023-07-13T08:52:01;13.23;;;2.83;;
26337;SDS011;14050;50.950;4.460;2023-07-13T08:57:03;14.63;;;3.42;;
26337;SDS011;14050;50.950;4.460;2023-07-13T09:07:14;12.32;;;3.08;;
26337;SDS011;14050;50.950;4.460;2023-07-13T09:17:40;16.15;;;2.95;;
26337;SDS011;14050;50.950;4.460;2023-07-13T09:22:41;12.48;;;2.58;;
26337;SDS011;14050;50.950;4.460;2023-07-13T09:27:43;14.00;;;2.95;;
26337;SDS011;14050;50.950;4.460;2023-07-13T09:32:45;19.63;;;3.15;;
26337;SDS011;14050;50.950;4.460;2023-07-13T09:37:47;12.52;;;3.00;;
26337;SDS011;14050;50.950;4.460;2023-07-13T09:42:48;19.50;;;2.95;;
26337;SDS011;14050;50.950;4.460;2023-07-13T09:47:48;21.83;;;2.88;;
26337;SDS011;14050;50.950;4.460;2023-07-13T09:52:58;12.13;;;2.30;;
26337;SDS011;14050;50.950;4.460;2023-07-13T09:58:05;6.90;;;1.90;;
26337;SDS011;14050;50.950;4.460;2023-07-13T10:08:46;18.10;;;2.58;;
26337;SDS011;14050;50.950;4.460;2023-07-13T10:13:54;10.10;;;2.60;;
26337;SDS011;14050;50.950;4.460;2023-07-13T10:18:58;7.65;;;2.17;;
26337;SDS011;14050;50.950;4.460;2023-07-13T10:24:03;12.23;;;2.63;;
26337;SDS011;14050;50.950;4.460;2023-07-13T10:29:06;8.25;;;2.00;;
26337;SDS011;14050;50.950;4.460;2023-07-13T10:34:09;9.77;;;2.13;;
26337;SDS011;14050;50.950;4.460;2023-07-13T10:39:28;12.13;;;2.45;;
26337;SDS011;14050;50.950;4.460;2023-07-13T10:44:30;11.00;;;2.28;;
26337;SDS011;14050;50.950;4.460;2023-07-13T10:49:31;7.95;;;1.92;;
26337;SDS011;14050;50.950;4.460;2023-07-13T10:54:33;9.65;;;2.38;;
26337;SDS011;14050;50.950;4.460;2023-07-13T10:59:34;8.68;;;2.00;;
26337;SDS011;14050;50.950;4.460;2023-07-13T11:04:54;10.77;;;2.25;;
26337;SDS011;14050;50.950;4.460;2023-07-13T11:09:56;9.77;;;2.00;;
26337;SDS011;14050;50.950;4.460;2023-07-13T11:15:02;9.18;;;2.65;;
26337;SDS011;14050;50.950;4.460;2023-07-13T11:25:26;10.25;;;2.38;;
26337;SDS011;14050;50.950;4.460;2023-07-13T11:35:27;6.25;;;2.00;;
26337;SDS011;14050;50.950;4.460;2023-07-13T11:40:28;10.45;;;2.20;;
26337;SDS011;14050;50.950;4.460;2023-07-13T15:15:22;6.88;;;1.85;;
26337;SDS011;14050;50.950;4.460;2023-07-13T15:20:25;6.27;;;2.00;;
26337;SDS011;14050;50.950;4.460;2023-07-13T15:25:26;3.85;;;1.60;;
26337;SDS011;14050;50.950;4.460;2023-07-13T15:30:27;4.22;;;1.80;;
26337;SDS011;14050;50.950;4.460;2023-07-13T15:35:28;3.80;;;1.73;;
26337;SDS011;14050;50.950;4.460;2023-07-13T15:40:28;3.33;;;1.80;;
26337;SDS011;14050;50.950;4.460;2023-07-13T15:45:29;7.90;;;2.33;;
26337;SDS011;14050;50.950;4.460;2023-07-13T15:50:29;6.10;;;1.63;;
26337;SDS011;14050;50.950;4.460;2023-07-13T15:55:39;8.43;;;1.80;;
26337;SDS011;14050;50.950;4.460;2023-07-13T16:00:42;5.05;;;1.77;;
26337;SDS011;14050;50.950;4.460;2023-07-13T16:05:43;4.07;;;1.77;;
26337;SDS011;14050;50.950;4.460;2023-07-13T16:10:43;5.00;;;1.77;;
26337;SDS011;14050;50.950;4.460;2023-07-13T16:15:44;3.45;;;1.60;;
26337;SDS011;14050;50.950;4.460;2023-07-13T16:20:45;5.73;;;1.67;;
26337;SDS011;14050;50.950;4.460;2023-07-13T16:25:46;3.45;;;1.70;;
26337;SDS011;14050;50.950;4.460;2023-07-13T16:30:48;5.22;;;1.50;;
26337;SDS011;14050;50.950;4.460;2023-07-13T16:35:48;10.52;;;2.00;;
26337;SDS011;14050;50.950;4.460;2023-07-13T16:40:49;8.30;;;1.98;;
26337;SDS011;14050;50.950;4.460;2023-07-13T16:45:50;4.00;;;1.40;;
26337;SDS011;14050;50.950;4.460;2023-07-13T16:50:54;5.43;;;1.60;;
26337;SDS011;14050;50.950;4.460;2023-07-13T16:55:55;4.25;;;1.48;;
26337;SDS011;14050;50.950;4.460;2023-07-13T17:00:56;3.45;;;1.42;;
26337;SDS011;14050;50.950;4.460;2023-07-13T17:05:57;8.70;;;1.50;;
26337;SDS011;14050;50.950;4.460;2023-07-13T17:11:00;7.63;;;1.83;;
26337;SDS011;14050;50.950;4.460;2023-07-13T17:16:00;4.05;;;1.55;;
26337;SDS011;14050;50.950;4.460;2023-07-13T17:21:02;6.10;;;1.42;;
26337;SDS011;14050;50.950;4.460;2023-07-13T17:26:04;7.28;;;1.52;;
26337;SDS011;14050;50.950;4.460;2023-07-13T17:31:04;3.60;;;1.50;;
26337;SDS011;14050;50.950;4.460;2023-07-13T17:36:12;6.43;;;1.50;;
26337;SDS011;14050;50.950;4.460;2023-07-13T17:41:13;5.18;;;1.85;;
26337;SDS011;14050;50.950;4.460;2023-07-13T17:46:18;10.27;;;1.92;;
26337;SDS011;14050;50.950;4.460;2023-07-13T17:51:18;7.75;;;1.73;;
26337;SDS011;14050;50.950;4.460;2023-07-13T17:56:22;8.30;;;1.80;;
26337;SDS011;14050;50.950;4.460;2023-07-13T18:01:26;5.53;;;1.80;;
26337;SDS011;14050;50.950;4.460;2023-07-13T18:06:33;10.55;;;1.88;;
26337;SDS011;14050;50.950;4.460;2023-07-13T18:11:34;4.68;;;1.60;;
26337;SDS011;14050;50.950;4.460;2023-07-13T18:16:35;4.47;;;1.80;;
26337;SDS011;14050;50.950;4.460;2023-07-13T18:21:35;7.03;;;1.40;;
26337;SDS011;14050;50.950;4.460;2023-07-13T18:26:36;7.75;;;1.55;;
26337;SDS011;14050;50.950;4.460;2023-07-13T18:31:38;5.07;;;1.80;;
26337;SDS011;14050;50.950;4.460;2023-07-13T18:36:38;5.70;;;1.95;;
26337;SDS011;14050;50.950;4.460;2023-07-13T18:41:39;4.05;;;1.65;;
26337;SDS011;14050;50.950;4.460;2023-07-13T18:46:39;5.82;;;1.75;;
26337;SDS011;14050;50.950;4.460;2023-07-13T18:51:39;4.50;;;1.60;;
26337;SDS011;14050;50.950;4.460;2023-07-13T18:56:40;4.32;;;1.58;;
26337;SDS011;14050;50.950;4.460;2023-07-13T19:01:40;3.83;;;1.50;;
26337;SDS011;14050;50.950;4.460;2023-07-13T19:06:40;5.67;;;1.40;;
26337;SDS011;14050;50.950;4.460;2023-07-13T19:11:41;3.50;;;1.47;;
26337;SDS011;14050;50.950;4.460;2023-07-13T19:16:41;3.78;;;1.27;;
26337;SDS011;14050;50.950;4.460;2023-07-13T19:21:42;3.80;;;1.40;;
26337;SDS011;14050;50.950;4.460;2023-07-13T19:26:43;3.92;;;1.17;;
26337;SDS011;14050;50.950;4.460;2023-07-13T19:31:44;2.63;;;1.27;;
26337;SDS011;14050;50.950;4.460;2023-07-13T19:36:46;7.20;;;1.55;;
26337;SDS011;14050;50.950;4.460;2023-07-13T19:41:46;4.13;;;1.42;;
26337;SDS011;14050;50.950;4.460;2023-07-13T19:46:47;4.47;;;1.15;;
26337;SDS011;14050;50.950;4.460;2023-07-13T19:51:47;4.53;;;1.30;;
26337;SDS011;14050;50.950;4.460;2023-07-13T19:56:48;5.80;;;1.70;;
26337;SDS011;14050;50.950;4.460;2023-07-13T20:01:48;5.97;;;1.40;;
26337;SDS011;14050;50.950;4.460;2023-07-13T20:06:49;2.53;;;1.13;;
26337;SDS011;14050;50.950;4.460;2023-07-13T20:11:49;4.90;;;1.23;;
26337;SDS011;14050;50.950;4.460;2023-07-13T20:16:54;3.47;;;1.10;;
26337;SDS011;14050;50.950;4.460;2023-07-13T20:21:55;5.65;;;1.30;;
26337;SDS011;14050;50.950;4.460;2023-07-13T20:26:56;21.48;;;1.83;;
26337;SDS011;14050;50.950;4.460;2023-07-13T20:31:56;26.45;;;2.20;;
26337;SDS011;14050;50.950;4.460;2023-07-13T20:36:58;16.67;;;1.55;;
26337;SDS011;14050;50.950;4.460;2023-07-13T20:41:59;9.98;;;1.13;;
26337;SDS011;14050;50.950;4.460;2023-07-13T20:47:00;4.03;;;1.20;;
26337;SDS011;14050;50.950;4.460;2023-07-13T20:52:03;3.78;;;1.45;;
26337;SDS011;14050;50.950;4.460;2023-07-13T20:57:04;5.38;;;1.13;;
26337;SDS011;14050;50.950;4.460;2023-07-13T21:02:27;4.18;;;1.52;;
26337;SDS011;14050;50.950;4.460;2023-07-13T21:07:25;3.38;;;1.10;;
26337;SDS011;14050;50.950;4.460;2023-07-13T21:12:26;3.83;;;1.30;;
26337;SDS011;14050;50.950;4.460;2023-07-13T21:17:29;6.13;;;1.20;;
26337;SDS011;14050;50.950;4.460;2023-07-13T21:22:30;4.45;;;1.30;;
26337;SDS011;14050;50.950;4.460;2023-07-13T21:27:31;2.92;;;1.17;;
26337;SDS011;14050;50.950;4.460;2023-07-13T21:32:31;5.93;;;1.27;;
26337;SDS011;14050;50.950;4.460;2023-07-13T21:37:31;3.63;;;1.08;;
26337;SDS011;14050;50.950;4.460;2023-07-13T21:42:31;4.00;;;1.33;;
26337;SDS011;14050;50.950;4.460;2023-07-13T21:47:32;4.25;;;1.10;;
26337;SDS011;14050;50.950;4.460;2023-07-13T21:52:32;3.28;;;1.23;;
26337;SDS011;14050;50.950;4.460;2023-07-13T21:57:32;7.00;;;1.70;;
26337;SDS011;14050;50.950;4.460;2023-07-13T22:02:32;5.10;;;1.40;;
26337;SDS011;14050;50.950;4.460;2023-07-13T22:07:32;2.60;;;1.23;;
26337;SDS011;14050;50.950;4.460;2023-07-13T22:12:34;3.75;;;1.20;;
26337;SDS011;14050;50.950;4.460;2023-07-13T22:17:35;5.82;;;1.52;;
26337;SDS011;14050;50.950;4.460;2023-07-13T22:22:35;4.20;;;1.50;;
26337;SDS011;14050;50.950;4.460;2023-07-13T22:27:36;3.38;;;1.33;;
26337;SDS011;14050;50.950;4.460;2023-07-13T22:32:36;5.63;;;1.40;;
26337;SDS011;14050;50.950;4.460;2023-07-13T22:37:38;4.38;;;1.33;;
26337;SDS011;14050;50.950;4.460;2023-07-13T22:42:39;3.92;;;1.35;;
26337;SDS011;14050;50.950;4.460;2023-07-13T22:47:39;7.70;;;1.70;;
26337;SDS011;14050;50.950;4.460;2023-07-13T22:52:40;8.02;;;1.70;;
26337;SDS011;14050;50.950;4.460;2023-07-13T22:57:41;8.70;;;1.70;;
26337;SDS011;14050;50.950;4.460;2023-07-13T23:02:41;7.93;;;1.65;;
26337;SDS011;14050;50.950;4.460;2023-07-13T23:07:42;2.75;;;1.48;;
26337;SDS011;14050;50.950;4.460;2023-07-13T23:12:42;4.55;;;1.88;;
26337;SDS011;14050;50.950;4.460;2023-07-13T23:17:43;7.47;;;1.97;;
26337;SDS011;14050;50.950;4.460;2023-07-13T23:22:43;6.33;;;2.00;;
26337;SDS011;14050;50.950;4.460;2023-07-13T23:27:43;7.07;;;2.00;;
26337;SDS011;14050;50.950;4.460;2023-07-13T23:32:44;5.93;;;1.93;;
26337;SDS011;14050;50.950;4.460;2023-07-13T23:37:45;6.28;;;2.08;;
26337;SDS011;14050;50.950;4.460;2023-07-13T23:42:46;4.05;;;1.75;;
26337;SDS011;14050;50.950;4.460;2023-07-13T23:47:48;8.80;;;1.90;;
26337;SDS011;14050;50.950;4.460;2023-07-13T23:52:48;8.02;;;2.25;;
26337;SDS011;14050;50.950;4.460;2023-07-13T23:57:49;6.50;;;2.10;;
